Time;durP1;ratioP1;P1;durP2;ratioP2;P2;SDS_P1;SDS_P2;PMS_P1;PMS_P2;Temp;Humidity;BMP_temperature;BMP_pressure;BME280_temperature;BME280_humidity;BME280_pressure;Samples;Min_cycle;Max_cycle;Signal;HPM_P1;HPM_P2
2021/12/15 00:00:34;;;;;;;99.07;45.20;;;;;;;0.24;nan;101757.38;5030134;28;20065;-73
2021/12/15 00:03:19;;;;;;;102.85;46.97;;;;;;;0.19;nan;101752.56;5033188;28;20073;-75
2021/12/15 00:06:12;;;;;;;102.88;46.63;;;;;;;0.16;nan;101752.78;5034284;28;20035;-75
2021/12/15 00:09:00;;;;;;;93.97;43.95;;;;;;;0.13;nan;101747.03;5026679;28;20249;-75
2021/12/15 00:11:46;;;;;;;100.65;44.00;;;;;;;0.17;nan;101758.81;5030438;28;20399;-75
2021/12/15 00:14:33;;;;;;;98.20;43.03;;;;;;;0.21;nan;101766.19;5030030;28;20427;-75
2021/12/15 00:17:20;;;;;;;102.97;44.22;;;;;;;0.17;nan;101756.22;5030473;28;20026;-75
2021/12/15 00:20:12;;;;;;;98.45;44.63;;;;;;;0.25;nan;101774.53;5030981;28;20071;-75
2021/12/15 00:22:59;;;;;;;100.10;44.22;;;;;;;0.23;nan;101768.66;5032230;28;20064;-73
2021/12/15 00:25:45;;;;;;;111.72;45.30;;;;;;;0.23;nan;101771.25;5028516;28;20037;-73
2021/12/15 00:28:32;;;;;;;102.22;43.55;;;;;;;0.13;nan;101757.41;5016618;28;20041;-73
2021/12/15 00:31:19;;;;;;;99.80;45.15;;;;;;;0.21;nan;101778.31;5029689;28;20559;-71
2021/12/15 00:34:07;;;;;;;109.10;45.72;;;;;;;-0.12;nan;101740.38;5032546;28;20563;-73
2021/12/15 00:36:53;;;;;;;97.18;42.97;;;;;;;0.19;nan;101778.44;5031212;28;20037;-72
2021/12/15 00:39:38;;;;;;;101.35;45.17;;;;;;;0.21;nan;101786.09;5030599;28;20033;-72
2021/12/15 00:42:24;;;;;;;102.03;47.22;;;;;;;0.14;nan;101771.97;5031293;28;20049;-73
2021/12/15 00:45:11;;;;;;;105.97;44.88;;;;;;;0.09;nan;101772.34;5031802;28;20049;-72
2021/12/15 00:47:58;;;;;;;108.00;47.53;;;;;;;0.21;nan;101791.25;5030384;28;20566;-73
2021/12/15 00:50:45;;;;;;;104.45;46.67;;;;;;;0.19;nan;101793.16;5025104;28;20419;-73
2021/12/15 00:53:31;;;;;;;113.28;50.63;;;;;;;-0.05;nan;101754.50;5028481;28;20041;-73
2021/12/15 00:56:17;;;;;;;119.65;52.55;;;;;;;0.16;nan;101786.44;5032914;28;20484;-72
2021/12/15 00:59:05;;;;;;;128.43;56.70;;;;;;;-0.09;nan;101735.81;5031713;28;20034;-75
2021/12/15 01:01:52;;;;;;;128.40;57.45;;;;;;;0.25;nan;101782.31;5026534;28;20057;-75
2021/12/15 01:04:37;;;;;;;129.43;57.72;;;;;;;0.30;nan;101777.56;5032386;28;20515;-75
2021/12/15 01:07:23;;;;;;;140.40;58.55;;;;;;;0.34;nan;101791.13;5027011;28;20069;-75
2021/12/15 01:10:11;;;;;;;140.85;57.65;;;;;;;0.30;nan;101777.56;5031991;28;20062;-75
2021/12/15 01:22:00;;;;;;;141.35;58.28;;;;;;;0.08;nan;101770.72;5027612;28;20418;-75
2021/12/15 01:24:47;;;;;;;143.05;60.13;;;;;;;0.06;nan;101764.81;5024142;28;20415;-75
2021/12/15 01:27:33;;;;;;;137.13;57.58;;;;;;;0.02;nan;101753.06;5031549;28;20029;-75
2021/12/15 01:30:23;;;;;;;141.50;59.75;;;;;;;0.12;nan;101759.16;5029943;28;20144;-75
2021/12/15 01:33:10;;;;;;;135.93;57.13;;;;;;;0.19;nan;101765.50;5031551;28;20411;-75
2021/12/15 01:35:58;;;;;;;139.90;60.17;;;;;;;0.23;nan;101762.66;5027890;28;20456;-75
2021/12/15 01:38:45;;;;;;;126.10;55.75;;;;;;;0.30;nan;101766.41;5033323;28;20033;-75
2021/12/15 01:41:31;;;;;;;118.07;52.33;;;;;;;0.31;nan;101762.84;5029606;28;20044;-75
2021/12/15 01:47:03;;;;;;;116.00;51.80;;;;;;;0.35;nan;101764.25;5031149;28;20033;-75
2021/12/15 01:49:53;;;;;;;117.28;50.38;;;;;;;0.40;nan;101770.69;5021221;28;20045;-75
2021/12/15 01:52:41;;;;;;;123.35;55.53;;;;;;;0.09;nan;101706.78;5024672;28;20026;-75
2021/12/15 01:55:28;;;;;;;100.00;44.03;;;;;;;0.36;nan;101751.19;5031868;28;20518;-72
2021/12/15 01:58:14;;;;;;;142.23;61.28;;;;;;;0.38;nan;101756.22;5026145;28;20040;-72
2021/12/15 02:01:05;;;;;;;144.32;61.38;;;;;;;0.38;nan;101758.81;5021509;28;20045;-72
2021/12/15 02:03:50;;;;;;;132.63;60.60;;;;;;;0.44;nan;101767.88;5026747;28;20072;-72
2021/12/15 02:06:41;;;;;;;149.70;63.28;;;;;;;0.39;nan;101755.28;5029663;28;20041;-72
2021/12/15 02:12:36;;;;;;;135.45;57.13;;;;;;;0.35;nan;101759.06;5029619;28;20060;-72
2021/12/15 02:15:26;;;;;;;132.38;58.50;;;;;;;0.20;nan;101738.63;5026170;28;20048;-75
2021/12/15 02:18:16;;;;;;;134.80;56.55;;;;;;;0.30;nan;101748.25;5029204;28;20091;-73
2021/12/15 02:21:08;;;;;;;131.63;59.05;;;;;;;0.32;nan;101754.16;5024415;28;20088;-72
2021/12/15 02:23:57;;;;;;;131.32;55.25;;;;;;;0.26;nan;101749.44;5025625;28;20496;-71
2021/12/15 02:26:49;;;;;;;131.38;55.10;;;;;;;0.23;nan;101740.16;5024802;28;20041;-73
2021/12/15 02:29:40;;;;;;;130.80;54.75;;;;;;;0.28;nan;101756.16;5028875;28;20037;-73
2021/12/15 02:32:44;;;;;;;123.07;53.40;;;;;;;0.19;nan;101743.94;5028765;28;20040;-71
2021/12/15 02:38:40;;;;;;;124.35;52.63;;;;;;;0.16;nan;101750.19;5025775;28;20045;-73
2021/12/15 02:41:29;;;;;;;125.20;52.60;;;;;;;0.09;nan;101740.44;5031773;28;20046;-73
2021/12/15 02:44:20;;;;;;;118.30;51.45;;;;;;;0.12;nan;101743.63;5026579;28;20034;-72
2021/12/15 02:47:06;;;;;;;133.63;54.90;;;;;;;0.09;nan;101733.50;5023296;28;20412;-73
2021/12/15 02:49:54;;;;;;;122.70;53.10;;;;;;;0.20;nan;101745.59;5027340;28;20052;-73
2021/12/15 02:52:40;;;;;;;130.38;54.38;;;;;;;0.16;nan;101739.00;5026989;28;20030;-72
2021/12/15 02:55:28;;;;;;;122.30;53.75;;;;;;;0.19;nan;101733.56;5030419;28;20050;-73
2021/12/15 02:58:14;;;;;;;121.82;53.63;;;;;;;0.24;nan;101752.19;5020403;28;20030;-72
2021/12/15 03:01:11;;;;;;;116.43;50.63;;;;;;;0.31;nan;101757.66;5026307;28;20380;-72
2021/12/15 03:04:41;;;;;;;120.10;50.28;;;;;;;0.24;nan;101741.81;5023778;28;20396;-71
2021/12/15 03:07:25;;;;;;;118.90;51.60;;;;;;;0.34;nan;101749.66;5030852;28;20127;-72
2021/12/15 03:16:23;;;;;;;113.88;50.00;;;;;;;0.25;nan;101727.91;5026364;28;20041;-72
2021/12/15 03:19:10;;;;;;;112.80;48.25;;;;;;;0.34;nan;101747.06;5025975;28;20095;-72
2021/12/15 03:21:56;;;;;;;121.40;49.15;;;;;;;0.28;nan;101732.00;5025521;28;20128;-72
2021/12/15 03:24:42;;;;;;;113.95;49.20;;;;;;;0.32;nan;101743.78;5027193;28;20188;-72
2021/12/15 03:33:27;;;;;;;113.82;50.00;;;;;;;0.32;nan;101749.78;5029713;28;20045;-72
2021/12/15 03:34:37;;;;;;;106.80;48.47;;;;;;;0.29;nan;101738.81;5027030;28;20037;-72
2021/12/15 03:37:31;;;;;;;113.32;46.90;;;;;;;0.24;nan;101736.63;5027552;28;20510;-72
2021/12/15 03:40:05;;;;;;;108.80;45.85;;;;;;;0.29;nan;101751.78;5027946;28;20091;-73
2021/12/15 03:43:01;;;;;;;110.38;45.42;;;;;;;0.20;nan;101741.22;5033624;28;20128;-73
2021/12/15 03:45:52;;;;;;;106.10;43.97;;;;;;;0.25;nan;101753.00;5027656;28;20394;-73
2021/12/15 03:48:42;;;;;;;99.95;41.55;;;;;;;0.15;nan;101753.72;5034568;28;20045;-73
2021/12/15 03:51:28;;;;;;;102.38;41.22;;;;;;;0.09;nan;101738.66;5030332;28;20045;-73
2021/12/15 03:54:14;;;;;;;88.60;38.70;;;;;;;0.08;nan;101765.53;5030124;28;20395;-73
2021/12/15 03:56:59;;;;;;;78.93;35.28;;;;;;;-0.06;nan;101768.41;5032401;28;20452;-74
2021/12/15 03:59:46;;;;;;;74.88;33.95;;;;;;;-0.25;nan;101756.88;5030022;28;20030;-72
2021/12/15 04:02:33;;;;;;;74.53;33.60;;;;;;;-0.24;nan;101771.50;5033419;28;20538;-73
2021/12/15 04:05:20;;;;;;;71.13;33.65;;;;;;;-0.29;nan;101777.97;5030993;28;20187;-73
2021/12/15 04:08:06;;;;;;;71.40;32.00;;;;;;;-0.36;nan;101769.88;5029307;28;20041;-73
2021/12/15 04:10:52;;;;;;;63.13;30.58;;;;;;;-0.41;nan;101765.97;5033201;28;20538;-73
2021/12/15 04:13:39;;;;;;;74.78;31.15;;;;;;;-0.39;nan;101769.28;5033440;28;20033;-74
2021/12/15 04:16:41;;;;;;;66.60;30.15;;;;;;;-0.45;nan;101758.47;5034485;28;20563;-73
2021/12/15 04:19:29;;;;;;;70.45;29.75;;;;;;;-0.57;nan;101740.50;5032972;28;20033;-71
2021/12/15 04:22:15;;;;;;;62.83;29.48;;;;;;;-0.57;nan;101732.72;5031568;28;20052;-73
2021/12/15 04:25:10;;;;;;;65.05;29.60;;;;;;;-0.72;nan;101742.47;5031786;28;20045;-73
2021/12/15 04:28:02;;;;;;;62.22;29.02;;;;;;;-0.55;nan;101772.22;5024238;28;20037;-73
2021/12/15 04:30:51;;;;;;;69.88;29.77;;;;;;;-0.82;nan;101720.84;5020149;28;20033;-73
2021/12/15 04:33:43;;;;;;;64.63;28.27;;;;;;;-0.77;nan;101776.44;5027771;28;20037;-73
2021/12/15 04:36:34;;;;;;;58.83;26.65;;;;;;;-0.86;nan;101764.22;5027950;28;20037;-73
2021/12/15 04:39:25;;;;;;;56.65;25.88;;;;;;;-0.93;nan;101774.22;5028322;28;20029;-73
2021/12/15 04:42:11;;;;;;;66.95;27.40;;;;;;;-0.94;nan;101792.41;5024929;28;20033;-73
2021/12/15 04:44:57;;;;;;;78.05;30.17;;;;;;;-1.03;nan;101780.19;5021601;28;20033;-73
2021/12/15 04:47:44;;;;;;;97.63;30.48;;;;;;;-1.11;nan;101783.34;5027347;28;20045;-73
2021/12/15 04:50:31;;;;;;;105.45;31.75;;;;;;;-1.41;nan;101781.25;5027188;28;20045;-73
2021/12/15 04:53:17;;;;;;;106.95;29.63;;;;;;;-1.44;nan;101795.22;5020610;28;20098;-72
2021/12/15 04:56:05;;;;;;;98.78;30.08;;;;;;;-1.48;nan;101798.13;5019327;28;20491;-73
2021/12/15 04:58:53;;;;;;;74.30;26.42;;;;;;;-1.64;nan;101775.19;5025762;28;20049;-74
2021/12/15 05:01:38;;;;;;;60.70;26.27;;;;;;;-1.73;nan;101790.41;5028403;28;20045;-73
2021/12/15 05:04:24;;;;;;;61.97;26.08;;;;;;;-1.81;nan;101773.81;5033298;28;20407;-76
2021/12/15 05:07:10;;;;;;;62.85;25.42;;;;;;;-1.69;nan;101788.44;5030228;28;20593;-71
2021/12/15 05:09:56;;;;;;;63.13;24.45;;;;;;;-1.76;nan;101792.41;5029497;28;20069;-71
2021/12/15 05:12:42;;;;;;;60.15;26.25;;;;;;;-1.77;nan;101775.25;5030641;28;20037;-73
2021/12/15 05:15:30;;;;;;;54.75;24.35;;;;;;;-1.75;nan;101784.53;5028635;28;20119;-73
2021/12/15 05:18:15;;;;;;;74.72;27.08;;;;;;;-1.63;nan;101803.47;5024356;28;20034;-76
2021/12/15 05:21:04;;;;;;;59.50;25.52;;;;;;;-1.67;nan;101786.56;5033862;28;20043;-78
2021/12/15 05:23:56;;;;;;;66.45;20.90;;;;;;;-1.53;nan;101794.16;5032929;28;20044;-78
2021/12/15 05:26:42;;;;;;;64.13;26.25;;;;;;;-1.61;nan;101780.94;5032157;28;20040;-81
2021/12/15 05:29:28;;;;;;;57.13;24.13;;;;;;;-1.55;nan;101785.69;5032276;28;20041;-81
2021/12/15 05:32:18;;;;;;;63.63;25.67;;;;;;;-1.50;nan;101785.34;5033401;28;20034;-81
2021/12/15 05:35:05;;;;;;;59.45;25.63;;;;;;;-1.44;nan;101786.66;5029020;28;20042;-81
2021/12/15 05:37:55;;;;;;;59.03;25.73;;;;;;;-1.50;nan;101768.09;5029899;28;20042;-81
2021/12/15 05:40:41;;;;;;;59.22;25.13;;;;;;;-1.48;nan;101773.16;5026805;28;20103;-81
2021/12/15 05:43:27;;;;;;;56.50;24.98;;;;;;;-1.51;nan;101792.28;5022587;28;20037;-81
2021/12/15 05:46:13;;;;;;;56.40;24.02;;;;;;;-1.46;nan;101798.84;5027928;28;20037;-81
2021/12/15 05:48:59;;;;;;;50.97;22.48;;;;;;;-1.55;nan;101775.34;5024591;28;20073;-81
2021/12/15 05:51:45;;;;;;;55.05;23.98;;;;;;;-1.56;nan;101784.00;5023126;28;20033;-81
2021/12/15 05:54:31;;;;;;;53.50;23.02;;;;;;;-1.72;nan;101792.06;5033097;28;20044;-81
2021/12/15 05:57:17;;;;;;;49.95;21.35;;;;;;;-1.57;nan;101791.91;5024355;28;20040;-81
2021/12/15 06:00:12;;;;;;;56.17;23.15;;;;;;;-1.58;nan;101801.41;5023729;28;20076;-81
2021/12/15 06:02:58;;;;;;;52.90;22.65;;;;;;;-1.67;nan;101776.25;5026561;28;20496;-81
2021/12/15 06:05:44;;;;;;;52.58;22.70;;;;;;;-1.61;nan;101793.84;5027171;28;20216;-80
2021/12/15 06:08:30;;;;;;;62.00;23.98;;;;;;;-1.55;nan;101790.03;5029280;28;20037;-81
2021/12/15 06:11:16;;;;;;;64.32;25.70;;;;;;;-1.48;nan;101798.97;5025120;28;20037;-81
2021/12/15 06:14:03;;;;;;;60.92;25.65;;;;;;;-1.50;nan;101816.34;5027122;28;20037;-81
2021/12/15 06:16:51;;;;;;;64.07;25.98;;;;;;;-1.50;nan;101817.16;5021300;28;20045;-74
2021/12/15 06:19:37;;;;;;;73.25;26.50;;;;;;;-1.37;nan;101829.19;5024132;28;20099;-72
2021/12/15 06:22:26;;;;;;;68.78;26.55;;;;;;;-1.39;nan;101821.56;5027808;28;20392;-72
2021/12/15 06:25:12;;;;;;;81.35;28.63;;;;;;;-1.50;nan;101822.31;5026361;28;20113;-72
2021/12/15 06:27:58;;;;;;;79.70;29.75;;;;;;;-1.33;nan;101844.34;5024588;28;20030;-73
2021/12/15 06:30:45;;;;;;;74.72;27.70;;;;;;;-1.42;nan;101831.28;5017884;28;20041;-73
2021/12/15 06:33:30;;;;;;;71.55;28.38;;;;;;;-1.42;nan;101845.03;5034955;28;20038;-74
2021/12/15 06:36:20;;;;;;;82.75;29.20;;;;;;;-1.35;nan;101853.16;5029524;28;20482;-73
2021/12/15 06:39:06;;;;;;;72.32;27.40;;;;;;;-1.27;nan;101850.00;5028589;28;20029;-74
2021/12/15 06:41:52;;;;;;;83.53;29.88;;;;;;;-1.10;nan;101853.03;5027699;28;20037;-74
2021/12/15 06:44:40;;;;;;;83.30;31.60;;;;;;;-1.01;nan;101861.84;5026588;28;20045;-73
2021/12/15 06:59:54;;;;;;;73.53;26.70;;;;;;;-0.85;nan;101879.66;5005073;28;20118;-75
2021/12/15 07:02:41;;;;;;;77.28;29.60;;;;;;;-0.78;nan;101874.84;5009038;28;20050;-75
2021/12/15 07:05:29;;;;;;;79.82;30.55;;;;;;;-0.73;nan;101876.16;5009174;28;20124;-74
2021/12/15 07:08:17;;;;;;;86.63;32.00;;;;;;;-0.73;nan;101873.56;5008515;28;20030;-74
2021/12/15 07:11:04;;;;;;;83.53;31.10;;;;;;;-0.63;nan;101883.22;5013256;28;20598;-74
2021/12/15 07:13:50;;;;;;;79.47;32.00;;;;;;;-0.61;nan;101882.16;5010887;28;20080;-74
2021/12/15 07:16:41;;;;;;;74.85;29.70;;;;;;;-0.66;nan;101899.81;5007843;28;20033;-74
2021/12/15 07:22:30;;;;;;;70.00;27.90;;;;;;;-1.22;nan;101856.50;5011972;28;20038;-75
2021/12/15 07:25:16;;;;;;;67.47;28.13;;;;;;;-0.96;nan;101901.16;5012210;28;20038;-75
2021/12/15 07:28:02;;;;;;;65.55;27.45;;;;;;;-1.07;nan;101909.66;5011546;28;20030;-75
2021/12/15 07:30:48;;;;;;;73.60;29.80;;;;;;;-1.17;nan;101907.88;5021166;28;20049;-74
2021/12/15 07:33:34;;;;;;;73.55;28.20;;;;;;;-1.25;nan;101900.66;5033547;28;20518;-74
2021/12/15 07:36:20;;;;;;;72.28;28.33;;;;;;;-1.16;nan;101915.50;5027552;28;20037;-75
2021/12/15 07:39:10;;;;;;;69.00;26.90;;;;;;;-1.30;nan;101887.25;5033036;28;20470;-75
2021/12/15 07:42:03;;;;;;;70.03;28.65;;;;;;;-1.14;nan;101915.41;5032352;28;20033;-75
2021/12/15 07:44:49;;;;;;;73.30;28.88;;;;;;;-1.24;nan;101901.50;5029050;28;20063;-74
2021/12/15 07:47:35;;;;;;;63.83;25.75;;;;;;;-1.21;nan;101911.59;5033447;28;20037;-75
2021/12/15 07:50:21;;;;;;;69.18;26.80;;;;;;;-1.04;nan;101934.47;5032163;28;20119;-75
2021/12/15 07:53:08;;;;;;;67.70;28.33;;;;;;;-1.04;nan;101918.13;5027112;28;20033;-74
2021/12/15 07:55:55;;;;;;;76.60;27.25;;;;;;;-0.90;nan;101925.72;5029150;28;20056;-75
2021/12/15 07:58:41;;;;;;;76.32;27.42;;;;;;;-1.04;nan;101881.94;5024534;28;20538;-76
2021/12/15 08:01:27;;;;;;;63.22;24.75;;;;;;;-0.88;nan;101914.31;5032902;28;20041;-75
2021/12/15 08:04:13;;;;;;;61.08;24.50;;;;;;;-0.85;nan;101923.63;5029573;28;20045;-74
2021/12/15 08:06:59;;;;;;;61.78;24.48;;;;;;;-0.84;nan;101930.41;5034868;28;20033;-74
2021/12/15 08:09:45;;;;;;;63.08;23.80;;;;;;;-0.89;nan;101917.00;5029912;28;20045;-80
2021/12/15 08:12:31;;;;;;;62.47;24.92;;;;;;;-0.95;nan;101920.06;5026325;28;20025;-80
2021/12/15 08:15:17;;;;;;;65.93;25.58;;;;;;;-0.94;nan;101924.28;5032329;28;20037;-81
2021/12/15 08:18:03;;;;;;;63.90;24.55;;;;;;;-0.92;nan;101928.41;5032248;28;20029;-80
2021/12/15 08:20:50;;;;;;;72.43;25.90;;;;;;;-0.87;nan;101934.06;5032197;28;20445;-80
2021/12/15 08:23:37;;;;;;;66.53;25.77;;;;;;;-0.76;nan;101929.88;5032285;28;20036;-80
2021/12/15 08:26:24;;;;;;;69.88;26.52;;;;;;;-0.77;nan;101930.81;5032727;28;20179;-81
2021/12/15 08:29:09;;;;;;;70.38;25.88;;;;;;;-0.84;nan;101908.91;5031132;28;20446;-81
2021/12/15 08:31:56;;;;;;;73.10;26.15;;;;;;;-0.67;nan;101922.28;5035203;28;20037;-77
2021/12/15 08:34:42;;;;;;;76.68;27.25;;;;;;;-0.57;nan;101925.00;5038499;28;20039;-77
2021/12/15 08:37:27;;;;;;;77.38;27.70;;;;;;;-0.48;nan;101923.47;5040811;28;20037;-77
2021/12/15 08:40:15;;;;;;;80.32;30.15;;;;;;;-0.36;nan;101938.09;5032739;28;20507;-77
2021/12/15 08:43:01;;;;;;;76.10;27.73;;;;;;;-0.38;nan;101927.03;5039860;28;20037;-77
2021/12/15 08:46:01;;;;;;;72.18;26.88;;;;;;;-0.44;nan;101933.47;5043431;28;20041;-77
2021/12/15 08:48:48;;;;;;;76.25;27.95;;;;;;;-0.60;nan;101929.56;5035726;28;20030;-77
2021/12/15 08:51:35;;;;;;;75.50;29.08;;;;;;;-0.37;nan;101949.38;5043688;28;20395;-77
2021/12/15 08:54:22;;;;;;;70.72;27.27;;;;;;;-0.39;nan;101951.25;5041105;28;20040;-77
2021/12/15 08:57:09;;;;;;;72.25;27.30;;;;;;;-0.38;nan;101942.56;5024889;28;20042;-77
2021/12/15 08:59:55;;;;;;;84.30;28.08;;;;;;;-0.40;nan;101956.56;5041457;28;20030;-77
2021/12/15 09:02:41;;;;;;;75.53;27.63;;;;;;;-0.43;nan;101942.09;5033088;28;20120;-77
2021/12/15 09:05:27;;;;;;;81.10;32.70;;;;;;;-0.34;nan;101951.72;5035731;28;20053;-77
2021/12/15 09:08:13;;;;;;;75.22;30.10;;;;;;;-0.27;nan;101939.97;5030648;28;20080;-77
2021/12/15 09:11:03;;;;;;;115.03;44.28;;;;;;;-0.16;nan;101940.94;5028916;28;20566;-78
2021/12/15 09:13:52;;;;;;;1999.90;685.97;;;;;;;0.27;nan;101955.78;5034158;28;20039;-76
2021/12/15 09:16:42;;;;;;;95.10;26.20;;;;;;;0.71;nan;101957.44;5036197;28;20037;-76
2021/12/15 09:19:28;;;;;;;130.45;35.08;;;;;;;0.64;nan;101945.91;5028005;28;20034;-76
2021/12/15 09:22:14;;;;;;;108.93;34.08;;;;;;;0.57;nan;101957.72;5034485;28;20034;-78
2021/12/15 09:25:00;;;;;;;92.32;31.90;;;;;;;0.45;nan;101958.69;5034065;28;20041;-78
2021/12/15 09:27:47;;;;;;;76.75;29.23;;;;;;;0.42;nan;101954.56;5033421;28;20164;-78
2021/12/15 09:30:41;;;;;;;71.90;28.45;;;;;;;0.38;nan;101947.97;5026781;28;20043;-78
2021/12/15 09:33:45;;;;;;;68.53;27.98;;;;;;;0.35;nan;101951.63;5032624;28;20395;-79
2021/12/15 09:36:31;;;;;;;65.90;27.35;;;;;;;0.24;nan;101935.25;5025316;28;20029;-75
2021/12/15 09:39:21;;;;;;;71.47;27.25;;;;;;;0.30;nan;101948.56;5028818;28;20033;-75
2021/12/15 09:42:07;;;;;;;69.63;28.35;;;;;;;0.37;nan;101943.75;5028407;28;20106;-78
2021/12/15 09:44:59;;;;;;;76.15;29.55;;;;;;;0.48;nan;101942.88;5027374;28;20037;-79
2021/12/15 09:57:23;;;;;;;66.45;26.38;;;;;;;0.70;nan;101918.72;5025106;28;20169;-79
2021/12/15 10:03:33;;;;;;;70.80;27.70;;;;;;;0.77;nan;101919.88;5028254;28;20104;-80
2021/12/15 10:06:28;;;;;;;67.05;27.60;;;;;;;0.84;nan;101926.19;5031086;28;20081;-80
2021/12/15 10:18:56;;;;;;;69.82;27.73;;;;;;;0.87;nan;101920.75;5028546;28;20069;-80
2021/12/15 10:21:56;;;;;;;66.03;27.02;;;;;;;0.90;nan;101906.72;5002356;28;20042;-80
2021/12/15 10:24:51;;;;;;;71.35;27.60;;;;;;;0.94;nan;101918.50;5029269;28;20511;-80
2021/12/15 10:27:47;;;;;;;70.82;28.65;;;;;;;1.09;nan;101935.41;5023827;28;20045;-75
2021/12/15 10:30:50;;;;;;;71.03;29.58;;;;;;;1.17;nan;101932.19;5015711;28;20491;-73
2021/12/15 10:33:43;;;;;;;71.63;27.65;;;;;;;1.26;nan;101921.06;5027679;28;20454;-73
2021/12/15 10:36:35;;;;;;;72.10;28.65;;;;;;;1.34;nan;101926.44;5023208;28;20034;-73
2021/12/15 10:39:22;;;;;;;78.05;30.05;;;;;;;1.28;nan;101913.97;5024272;28;20377;-73
2021/12/15 10:42:07;;;;;;;74.40;28.80;;;;;;;1.29;nan;101910.41;5008891;28;20029;-73
2021/12/15 10:45:08;;;;;;;79.53;29.70;;;;;;;1.37;nan;101920.19;5026604;28;20403;-74
2021/12/15 10:47:53;;;;;;;75.72;29.20;;;;;;;1.36;nan;101911.53;5029417;28;20041;-74
2021/12/15 10:50:40;;;;;;;70.72;28.45;;;;;;;1.48;nan;101914.91;5023495;28;20079;-74
2021/12/15 10:53:44;;;;;;;75.40;29.67;;;;;;;1.41;nan;101904.22;5030042;28;20099;-75
2021/12/15 10:56:35;;;;;;;82.50;33.53;;;;;;;1.54;nan;101919.59;5025439;28;20037;-75
2021/12/15 10:59:24;;;;;;;75.68;30.95;;;;;;;1.56;nan;101911.69;5028741;28;20062;-75
2021/12/15 11:02:12;;;;;;;81.03;34.00;;;;;;;1.61;nan;101917.31;5022363;28;20590;-75
2021/12/15 11:05:15;;;;;;;81.43;33.63;;;;;;;1.74;nan;101919.69;5028862;28;20053;-74
2021/12/15 11:08:01;;;;;;;85.32;34.70;;;;;;;1.75;nan;101919.56;5023607;28;20279;-76
2021/12/15 11:10:46;;;;;;;92.43;32.88;;;;;;;1.67;nan;101911.59;5021877;28;20033;-75
2021/12/15 11:13:33;;;;;;;80.43;31.40;;;;;;;1.75;nan;101909.19;5024289;28;20673;-75
2021/12/15 11:16:28;;;;;;;78.75;31.80;;;;;;;1.80;nan;101919.19;5027036;28;20033;-74
2021/12/15 11:19:38;;;;;;;72.00;28.65;;;;;;;1.69;nan;101918.28;5019722;28;20765;-74
2021/12/15 11:22:35;;;;;;;68.65;28.05;;;;;;;1.73;nan;101920.66;5021537;28;20048;-73
2021/12/15 11:25:33;;;;;;;68.63;27.45;;;;;;;1.70;nan;101922.56;5026145;28;20181;-74
2021/12/15 11:28:39;;;;;;;67.38;27.25;;;;;;;1.74;nan;101922.28;5026504;28;20095;-74
2021/12/15 11:31:31;;;;;;;70.60;28.05;;;;;;;1.73;nan;101913.69;5029589;28;20037;-74
2021/12/15 11:34:19;;;;;;;74.68;28.58;;;;;;;1.74;nan;101924.88;5026424;28;20045;-74
2021/12/15 11:37:05;;;;;;;67.78;27.85;;;;;;;1.73;nan;101902.47;5027827;28;20041;-73
2021/12/15 11:40:01;;;;;;;78.45;30.85;;;;;;;1.81;nan;101915.63;5027244;28;20041;-73
2021/12/15 11:42:47;;;;;;;79.03;31.17;;;;;;;1.78;nan;101910.69;5029483;28;20042;-73
2021/12/15 11:45:38;;;;;;;79.10;31.08;;;;;;;1.83;nan;101919.75;5027977;28;20504;-73
2021/12/15 11:48:28;;;;;;;78.90;30.88;;;;;;;1.86;nan;101919.47;5026675;28;20065;-73
2021/12/15 11:51:14;;;;;;;78.95;32.05;;;;;;;1.75;nan;101913.53;5027144;28;20029;-73
2021/12/15 11:54:00;;;;;;;78.88;31.92;;;;;;;1.77;nan;101928.03;5025812;28;20052;-73
2021/12/15 11:56:50;;;;;;;83.68;33.40;;;;;;;1.77;nan;101924.63;5031610;28;20500;-73
2021/12/15 11:59:44;;;;;;;76.65;30.25;;;;;;;1.69;nan;101907.91;5032363;28;20037;-74
2021/12/15 12:02:30;;;;;;;73.40;31.73;;;;;;;1.77;nan;101922.03;5026836;28;20054;-73
2021/12/15 12:05:19;;;;;;;73.15;29.40;;;;;;;1.79;nan;101925.31;5027423;28;20067;-74
2021/12/15 12:08:11;;;;;;;74.10;26.60;;;;;;;1.78;nan;101906.31;5031387;28;20033;-74
2021/12/15 12:11:04;;;;;;;67.50;26.50;;;;;;;1.77;nan;101909.03;5028133;28;21118;-73
2021/12/15 12:13:51;;;;;;;64.13;27.33;;;;;;;1.58;nan;101892.44;5029443;28;20063;-74
2021/12/15 12:16:37;;;;;;;69.22;27.58;;;;;;;1.68;nan;101905.47;5026340;28;20040;-73
2021/12/15 12:19:22;;;;;;;68.95;26.85;;;;;;;1.64;nan;101904.06;5020135;28;20037;-74
2021/12/15 12:22:10;;;;;;;70.53;28.00;;;;;;;1.70;nan;101913.94;5025531;28;20049;-74
2021/12/15 12:25:00;;;;;;;72.00;28.55;;;;;;;1.76;nan;101912.59;5024947;28;20038;-74
2021/12/15 12:27:47;;;;;;;74.85;28.60;;;;;;;1.43;nan;101860.78;5026215;28;20065;-73
2021/12/15 12:30:46;;;;;;;70.55;26.65;;;;;;;1.85;nan;101911.81;5039113;28;20056;-73
2021/12/15 12:33:34;;;;;;;66.43;26.85;;;;;;;1.88;nan;101920.16;5028758;28;20056;-73
2021/12/15 12:36:27;;;;;;;71.80;28.80;;;;;;;1.88;nan;101912.38;5024525;28;20402;-73
2021/12/15 12:39:14;;;;;;;65.82;28.60;;;;;;;1.88;nan;101911.56;5028031;28;20041;-72
2021/12/15 12:42:00;;;;;;;72.63;28.55;;;;;;;1.97;nan;101928.97;5024848;28;20051;-76
2021/12/15 12:44:50;;;;;;;66.28;27.45;;;;;;;1.92;nan;101918.16;5028384;28;20381;-74
2021/12/15 12:47:42;;;;;;;72.13;28.42;;;;;;;1.90;nan;101913.06;5028949;28;20037;-75
2021/12/15 12:50:51;;;;;;;73.25;28.90;;;;;;;1.88;nan;101911.56;5025331;28;20058;-74
2021/12/15 13:00:28;;;;;;;75.38;30.75;;;;;;;1.98;nan;101925.41;5025904;28;20064;-74
2021/12/15 13:03:18;;;;;;;74.50;29.85;;;;;;;1.99;nan;101931.41;5029590;28;20041;-73
2021/12/15 13:06:11;;;;;;;81.65;31.08;;;;;;;1.99;nan;101928.81;5028505;28;20034;-73
2021/12/15 13:09:05;;;;;;;77.55;31.83;;;;;;;1.98;nan;101930.59;5028333;28;20034;-74
2021/12/15 13:11:52;;;;;;;75.65;30.10;;;;;;;1.99;nan;101932.25;5023065;28;20033;-75
2021/12/15 13:14:38;;;;;;;62.90;26.73;;;;;;;1.80;nan;101922.59;5029485;28;20458;-75
2021/12/15 13:17:28;;;;;;;65.82;27.88;;;;;;;1.78;nan;101921.91;5030955;28;20033;-75
2021/12/15 13:20:23;;;;;;;67.38;27.25;;;;;;;1.49;nan;101904.41;5023047;28;20076;-74
2021/12/15 13:23:42;;;;;;;60.95;26.23;;;;;;;1.58;nan;101928.78;5025259;28;20091;-74
2021/12/15 13:29:52;;;;;;;68.88;28.05;;;;;;;1.76;nan;101934.19;5023882;28;20132;-72
2021/12/15 13:32:46;;;;;;;62.83;26.00;;;;;;;1.79;nan;101927.91;5026530;28;20037;-73
2021/12/15 13:35:42;;;;;;;79.85;32.58;;;;;;;1.82;nan;101925.06;5024421;28;20376;-73
2021/12/15 13:38:32;;;;;;;70.80;31.65;;;;;;;1.86;nan;101921.25;5027129;28;20384;-73
2021/12/15 13:41:39;;;;;;;60.50;26.63;;;;;;;1.88;nan;101914.16;5028379;28;20049;-73
2021/12/15 13:44:44;;;;;;;58.85;25.70;;;;;;;1.72;nan;101901.63;5026322;28;20510;-73
2021/12/15 13:47:30;;;;;;;67.82;28.38;;;;;;;1.71;nan;101905.19;5026766;28;20150;-73
2021/12/15 13:50:20;;;;;;;71.13;29.63;;;;;;;1.80;nan;101919.19;5029384;28;20033;-74
2021/12/15 13:53:06;;;;;;;62.42;25.38;;;;;;;1.48;nan;101869.03;5028377;28;20484;-73
2021/12/15 13:55:52;;;;;;;62.95;27.30;;;;;;;1.64;nan;101904.88;5028445;28;20132;-74
2021/12/15 13:58:38;;;;;;;59.83;25.63;;;;;;;1.65;nan;101921.28;5025379;28;20030;-73
2021/12/15 14:01:23;;;;;;;59.05;25.90;;;;;;;1.59;nan;101908.81;5023905;28;20079;-72
2021/12/15 14:04:09;;;;;;;61.72;25.65;;;;;;;1.33;nan;101878.06;5019624;28;20399;-73
2021/12/15 14:06:55;;;;;;;63.88;27.48;;;;;;;1.45;nan;101904.78;5027381;28;20112;-73
2021/12/15 14:09:41;;;;;;;77.75;31.23;;;;;;;1.53;nan;101919.72;5023693;28;20044;-73
2021/12/15 14:12:45;;;;;;;63.97;26.98;;;;;;;1.51;nan;101921.59;5022894;28;20041;-72
2021/12/15 14:15:43;;;;;;;62.45;25.77;;;;;;;1.48;nan;101926.13;5023428;28;20040;-72
2021/12/15 14:18:31;;;;;;;60.38;26.40;;;;;;;1.46;nan;101922.00;5022647;28;20037;-72
2021/12/15 14:21:18;;;;;;;46.43;20.57;;;;;;;1.40;nan;101905.16;5023597;28;20041;-73
2021/12/15 14:24:06;;;;;;;56.75;23.90;;;;;;;1.38;nan;101899.28;5027870;28;20557;-74
2021/12/15 14:26:52;;;;;;;63.30;26.00;;;;;;;1.40;nan;101914.72;5024492;28;20067;-74